Time;durP1;ratioP1;P1;durP2;ratioP2;P2;SDS_P1;SDS_P2;PMS_P1;PMS_P2;Temp;Humidity;BMP_temperature;BMP_pressure;BME280_temperature;BME280_humidity;BME280_pressure;Samples;Min_cycle;Max_cycle;Signal;HPM_P1;HPM_P2
2022/07/11 00:01:05;;;;;;;5.38;3.00;;;;;;;26.65;45.22;101135.41;4990538;28;20058;-79
2022/07/11 00:03:32;;;;;;;7.20;3.17;;;;;;;26.18;45.55;101067.13;4973274;28;20054;-79
2022/07/11 00:05:59;;;;;;;6.35;3.20;;;;;;;26.18;45.58;101083.44;4974038;28;20050;-79
2022/07/11 00:08:26;;;;;;;10.85;3.20;;;;;;;26.41;45.63;101118.13;4974154;28;20062;-80
2022/07/11 00:10:53;;;;;;;5.30;3.08;;;;;;;26.01;45.50;101042.44;4974321;28;20069;-80
2022/07/11 00:13:20;;;;;;;16.33;3.45;;;;;;;26.27;45.75;101092.97;4990881;28;20050;-80
2022/07/11 00:15:46;;;;;;;5.32;3.22;;;;;;;26.39;46.00;101120.25;4974461;28;20058;-78
2022/07/11 00:18:13;;;;;;;10.30;3.30;;;;;;;26.10;45.79;101051.13;4974031;28;20141;-79
2022/07/11 00:20:40;;;;;;;8.30;3.05;;;;;;;26.49;45.96;101131.41;4973846;28;20553;-79
2022/07/11 00:23:06;;;;;;;5.43;3.20;;;;;;;26.33;45.74;101102.09;4991128;28;20078;-80
2022/07/11 00:25:33;;;;;;;5.35;3.30;;;;;;;26.50;46.25;101135.78;4977504;28;20057;-80
2022/07/11 00:28:00;;;;;;;6.55;3.13;;;;;;;26.21;46.51;101100.16;4977726;28;20108;-79
2022/07/11 00:30:26;;;;;;;4.55;3.08;;;;;;;26.45;46.28;101124.75;4977554;28;20082;-80
2022/07/11 00:32:53;;;;;;;7.18;3.20;;;;;;;26.32;46.59;101127.66;4977561;28;20050;-79
2022/07/11 00:35:19;;;;;;;6.80;3.30;;;;;;;26.32;46.82;101128.50;4977366;28;20414;-80
2022/07/11 00:37:46;;;;;;;6.25;3.30;;;;;;;26.42;46.20;101136.13;4977267;28;20465;-79
2022/07/11 00:40:13;;;;;;;9.13;3.40;;;;;;;26.16;46.79;101100.00;4960544;28;20055;-80
2022/07/11 00:42:40;;;;;;;6.07;3.20;;;;;;;26.39;46.64;101145.56;4954305;29;20396;-79
2022/07/11 00:45:07;;;;;;;6.45;3.45;;;;;;;26.09;46.84;101101.13;4954423;29;20129;-79
2022/07/11 00:47:34;;;;;;;8.00;3.35;;;;;;;26.41;46.43;101150.81;4954699;29;20082;-80
2022/07/11 00:50:00;;;;;;;9.23;3.45;;;;;;;26.28;46.66;101145.50;4938731;29;20056;-80
2022/07/11 00:52:28;;;;;;;4.72;2.92;;;;;;;25.38;46.74;101030.72;4955223;28;20426;-80
2022/07/11 00:54:56;;;;;;;10.88;3.30;;;;;;;25.50;46.95;101030.84;4977054;28;20047;-79
2022/07/11 00:57:23;;;;;;;8.25;4.28;;;;;;;26.30;46.34;101154.28;4977185;28;20074;-80
2022/07/11 00:59:50;;;;;;;7.30;3.63;;;;;;;26.17;46.49;101156.09;4997631;28;20113;-78
2022/07/11 01:02:17;;;;;;;7.57;3.80;;;;;;;26.00;46.37;101146.88;4979060;28;20050;-79
2022/07/11 01:04:43;;;;;;;5.07;2.90;;;;;;;25.98;46.54;101146.25;4978978;28;20140;-80
2022/07/11 01:07:10;;;;;;;4.22;2.80;;;;;;;25.93;46.67;101165.16;4976570;28;20498;-80
2022/07/11 01:09:37;;;;;;;9.52;3.50;;;;;;;25.78;46.82;101147.25;4976873;28;20046;-80
2022/07/11 01:12:05;;;;;;;11.02;4.18;;;;;;;25.78;46.86;101158.13;4976679;28;20132;-80
2022/07/11 01:14:31;;;;;;;6.55;3.78;;;;;;;25.91;46.88;101178.13;4993860;28;20046;-81
2022/07/11 01:16:58;;;;;;;6.82;3.80;;;;;;;25.73;47.20;101163.41;4976400;28;20055;-80
2022/07/11 01:19:25;;;;;;;5.88;3.47;;;;;;;25.61;47.17;101145.31;4976391;28;20054;-80
2022/07/11 01:21:56;;;;;;;6.50;3.40;;;;;;;25.67;47.03;101166.19;4993951;28;20128;-80
2022/07/11 01:24:22;;;;;;;5.90;3.63;;;;;;;25.46;47.39;101137.50;4976098;28;20117;-80
2022/07/11 01:26:50;;;;;;;4.70;3.00;;;;;;;25.55;47.17;101169.63;4976374;28;20053;-80
2022/07/11 01:29:17;;;;;;;7.05;3.60;;;;;;;25.57;47.26;101166.69;4975922;28;20050;-78
2022/07/11 01:31:44;;;;;;;5.38;3.67;;;;;;;25.59;47.50;101176.28;4976438;28;20214;-78
2022/07/11 01:34:11;;;;;;;6.28;3.15;;;;;;;24.97;47.02;101071.19;4975623;28;20074;-80
2022/07/11 01:36:38;;;;;;;10.13;3.30;;;;;;;25.65;46.83;101169.13;4975788;28;20046;-79
2022/07/11 01:39:05;;;;;;;5.20;2.70;;;;;;;25.56;46.52;101151.44;4972252;28;20047;-79
2022/07/11 01:41:32;;;;;;;6.63;3.22;;;;;;;25.76;46.36;101171.13;4956727;28;20054;-79
2022/07/11 01:43:58;;;;;;;5.18;3.25;;;;;;;25.54;46.52;101159.81;4973998;28;20070;-79
2022/07/11 01:46:25;;;;;;;7.03;3.40;;;;;;;25.53;46.54;101170.91;4956737;28;20054;-79
2022/07/11 01:48:52;;;;;;;7.72;3.13;;;;;;;25.50;46.63;101153.16;4974026;28;20129;-80
2022/07/11 01:51:19;;;;;;;5.38;3.50;;;;;;;25.24;47.21;101146.03;4956277;28;20439;-79
2022/07/11 01:53:45;;;;;;;5.45;2.92;;;;;;;24.75;47.28;101079.69;4984715;28;20046;-79
2022/07/11 01:56:12;;;;;;;8.95;3.58;;;;;;;25.32;47.45;101183.81;4975572;28;20046;-80
2022/07/11 01:58:46;;;;;;;7.50;3.10;;;;;;;25.26;47.54;101181.97;4976995;28;20046;-79
2022/07/11 02:01:13;;;;;;;4.80;3.22;;;;;;;24.86;47.80;101133.31;4973423;28;20604;-81
2022/07/11 02:03:40;;;;;;;3.20;2.90;;;;;;;24.98;48.14;101152.47;4988305;28;20065;-79
2022/07/11 02:06:08;;;;;;;4.78;3.33;;;;;;;24.87;48.38;101150.44;4971480;28;20050;-79
2022/07/11 02:08:35;;;;;;;6.05;3.40;;;;;;;25.09;48.05;101180.81;4971291;28;20304;-80
2022/07/11 02:11:01;;;;;;;6.05;3.25;;;;;;;25.12;48.27;101191.22;4988446;28;20105;-79
2022/07/11 02:13:28;;;;;;;5.00;3.00;;;;;;;24.85;48.17;101141.66;4988338;28;20042;-80
2022/07/11 02:15:55;;;;;;;5.15;3.20;;;;;;;24.98;48.31;101167.91;4971111;28;20125;-80
2022/07/11 02:18:21;;;;;;;5.30;3.28;;;;;;;25.13;48.51;101198.34;4971092;28;20104;-80
2022/07/11 02:20:49;;;;;;;3.55;3.10;;;;;;;25.02;48.79;101186.25;4970940;28;20465;-80
2022/07/11 02:23:16;;;;;;;5.07;3.15;;;;;;;24.96;48.76;101176.28;4989859;28;20085;-79
2022/07/11 02:25:43;;;;;;;6.93;3.10;;;;;;;25.10;48.66;101199.59;4975960;28;20050;-80
2022/07/11 02:28:11;;;;;;;4.45;3.25;;;;;;;24.63;48.87;101119.44;4986175;28;20082;-79
2022/07/11 02:30:39;;;;;;;5.28;3.30;;;;;;;25.12;48.32;101183.06;4992663;28;20050;-80
2022/07/11 02:33:07;;;;;;;10.52;3.88;;;;;;;25.26;48.08;101198.28;4982176;28;20054;-81
2022/07/11 02:35:37;;;;;;;7.43;3.45;;;;;;;25.15;48.10;101196.25;4971719;28;20061;-81
2022/07/11 02:38:04;;;;;;;8.32;3.55;;;;;;;25.00;48.44;101172.09;4971115;28;20057;-80
2022/07/11 02:40:31;;;;;;;3.45;3.08;;;;;;;25.20;48.04;101199.16;4955164;28;20051;-80
2022/07/11 02:42:57;;;;;;;12.77;3.72;;;;;;;25.12;48.12;101192.06;4951329;28;20054;-81
2022/07/11 02:45:24;;;;;;;6.07;3.47;;;;;;;25.04;48.50;101189.59;4951418;28;20062;-80
2022/07/11 02:47:51;;;;;;;4.85;3.30;;;;;;;25.05;48.73;101206.72;4951060;28;20105;-80
2022/07/11 02:50:18;;;;;;;7.60;3.10;;;;;;;24.39;49.15;101121.81;4968224;28;20551;-80
2022/07/11 02:52:45;;;;;;;11.10;3.70;;;;;;;24.88;48.97;101201.81;4954046;28;20580;-80
2022/07/11 02:55:12;;;;;;;7.85;4.00;;;;;;;24.77;48.89;101183.47;4970699;28;20759;-81
2022/07/11 02:57:39;;;;;;;5.45;3.58;;;;;;;24.66;48.88;101168.72;4972118;28;20112;-80
2022/07/11 03:00:11;;;;;;;5.88;3.60;;;;;;;24.91;49.16;101206.81;4996583;28;20452;-81
2022/07/11 03:02:38;;;;;;;10.60;4.00;;;;;;;24.90;48.87;101199.72;4980098;28;20054;-79
2022/07/11 03:05:05;;;;;;;5.05;3.58;;;;;;;24.63;48.84;101165.59;4973798;28;20529;-80
2022/07/11 03:07:31;;;;;;;6.85;4.05;;;;;;;24.68;49.01;101184.78;4970837;28;20267;-80
2022/07/11 03:09:58;;;;;;;6.93;3.55;;;;;;;24.85;49.00;101209.56;4970011;28;20113;-81
2022/07/11 03:12:25;;;;;;;8.07;3.70;;;;;;;24.81;48.75;101217.31;4970431;28;20046;-80
2022/07/11 03:14:52;;;;;;;7.05;3.72;;;;;;;24.56;48.67;101151.22;4970098;28;20529;-80
2022/07/11 03:17:19;;;;;;;7.07;3.80;;;;;;;24.63;48.75;101160.16;4970268;28;20141;-80
2022/07/11 03:19:47;;;;;;;13.30;4.03;;;;;;;24.73;48.26;101155.94;4970425;28;20058;-80
2022/07/11 03:22:16;;;;;;;7.35;3.67;;;;;;;24.98;48.56;101204.06;4970153;28;20395;-79
2022/07/11 03:24:43;;;;;;;6.43;3.67;;;;;;;24.81;48.39;101182.00;4970130;28;20132;-79
2022/07/11 03:27:10;;;;;;;4.68;3.42;;;;;;;24.44;48.32;101116.59;4987354;28;20116;-80
2022/07/11 03:29:40;;;;;;;9.93;3.63;;;;;;;24.99;48.31;101207.59;4970298;28;20046;-80
2022/07/11 03:32:10;;;;;;;6.63;3.60;;;;;;;24.81;48.35;101194.72;4970311;28;20062;-80
2022/07/11 03:34:37;;;;;;;7.72;3.75;;;;;;;24.89;48.45;101197.22;4987138;28;20058;-80
2022/07/11 03:37:04;;;;;;;7.22;3.80;;;;;;;24.78;48.51;101196.00;4969873;28;20440;-81
2022/07/11 03:39:32;;;;;;;4.47;3.33;;;;;;;24.59;48.71;101192.34;4959456;28;20048;-80
2022/07/11 03:41:58;;;;;;;8.73;4.00;;;;;;;24.61;48.89;101202.97;4947453;29;20251;-80
2022/07/11 03:44:25;;;;;;;9.48;4.22;;;;;;;24.56;48.96;101202.78;4931313;29;20102;-80
2022/07/11 03:46:52;;;;;;;8.45;4.15;;;;;;;24.51;48.96;101206.97;4931334;29;20102;-81
2022/07/11 03:49:18;;;;;;;10.75;4.00;;;;;;;24.55;49.18;101206.56;4931367;29;20764;-80
2022/07/11 03:51:45;;;;;;;8.15;3.63;;;;;;;24.43;49.29;101188.19;4947255;29;20055;-81
2022/07/11 03:54:12;;;;;;;8.35;3.92;;;;;;;24.60;49.37;101213.00;4960201;28;20506;-80
2022/07/11 03:56:38;;;;;;;9.90;3.58;;;;;;;24.63;49.58;101225.31;4987344;28;20050;-80
2022/07/11 03:59:05;;;;;;;6.35;3.50;;;;;;;24.40;49.65;101196.75;4971359;28;20054;-81
2022/07/11 04:01:32;;;;;;;6.28;3.95;;;;;;;24.14;49.31;101159.69;4989541;28;20101;-80
2022/07/11 04:03:58;;;;;;;4.88;4.30;;;;;;;24.48;49.00;101201.97;4989628;28;20068;-80
2022/07/11 04:06:25;;;;;;;5.88;3.58;;;;;;;24.66;49.11;101231.16;4952757;28;20047;-81
2022/07/11 04:08:52;;;;;;;4.40;3.33;;;;;;;24.65;49.53;101228.66;4970069;28;20487;-80
2022/07/11 04:11:19;;;;;;;6.78;3.75;;;;;;;24.59;49.54;101224.06;4951918;28;20074;-79
2022/07/11 04:13:45;;;;;;;11.07;3.80;;;;;;;24.36;49.35;101189.25;4952780;28;20105;-80
2022/07/11 04:16:13;;;;;;;7.68;3.90;;;;;;;24.63;49.59;101237.00;4952344;28;20058;-80
2022/07/11 04:18:40;;;;;;;9.25;3.63;;;;;;;24.62;49.75;101245.38;4952151;28;20071;-80
2022/07/11 04:21:06;;;;;;;6.65;3.83;;;;;;;24.63;49.52;101231.56;4952749;28;20055;-80
2022/07/11 04:23:36;;;;;;;8.15;3.60;;;;;;;24.54;49.81;101222.00;4969437;28;20055;-81
2022/07/11 04:26:03;;;;;;;8.93;3.75;;;;;;;24.29;49.69;101186.56;4970240;28;20598;-80
2022/07/11 04:28:30;;;;;;;7.68;4.40;;;;;;;24.61;49.91;101244.50;4952631;28;20166;-81
2022/07/11 04:30:57;;;;;;;6.40;4.55;;;;;;;24.52;50.12;101227.66;4970473;28;20085;-80
2022/07/11 04:33:24;;;;;;;5.72;3.75;;;;;;;24.35;50.47;101196.56;4952242;28;20761;-80
2022/07/11 04:35:50;;;;;;;7.07;3.60;;;;;;;24.49;50.07;101214.50;4950404;28;20047;-80
2022/07/11 04:38:21;;;;;;;7.75;4.10;;;;;;;24.42;50.12;101210.94;4950730;28;20055;-80
2022/07/11 04:40:50;;;;;;;8.82;3.72;;;;;;;24.62;49.60;101242.66;4968506;28;20056;-79
2022/07/11 04:43:17;;;;;;;8.23;4.10;;;;;;;24.77;50.00;101259.50;4946016;28;20087;-79
2022/07/11 04:45:44;;;;;;;9.25;4.75;;;;;;;24.88;49.43;101261.56;4950370;28;20690;-80
2022/07/11 04:48:10;;;;;;;10.27;4.25;;;;;;;24.72;49.59;101234.88;4933754;28;20074;-80
2022/07/11 04:50:37;;;;;;;8.88;4.00;;;;;;;25.01;49.37;101260.66;4933058;29;20090;-79
2022/07/11 04:53:04;;;;;;;5.53;4.30;;;;;;;25.13;49.44;101264.38;4961447;28;20128;-79
2022/07/11 04:55:30;;;;;;;7.22;4.22;;;;;;;24.22;49.38;101123.34;4971421;28;20074;-79
2022/07/11 04:57:58;;;;;;;11.15;5.13;;;;;;;25.02;48.88;101231.63;4971556;28;20105;-80
2022/07/11 05:00:24;;;;;;;11.25;3.95;;;;;;;25.16;49.25;101255.78;4990446;28;20473;-79
2022/07/11 05:02:51;;;;;;;9.35;4.15;;;;;;;25.25;49.50;101271.88;4970840;28;20150;-79
2022/07/11 05:05:19;;;;;;;17.25;7.85;;;;;;;24.72;49.31;101186.03;4969317;28;20370;-79
2022/07/11 05:07:46;;;;;;;13.02;4.97;;;;;;;25.24;48.73;101273.72;4969547;28;20297;-79
2022/07/11 05:10:14;;;;;;;7.18;3.83;;;;;;;25.41;48.16;101286.81;4968756;28;20059;-79
2022/07/11 05:12:40;;;;;;;6.13;4.13;;;;;;;24.82;47.86;101175.53;4968061;28;20058;-79
2022/07/11 05:15:08;;;;;;;8.15;4.10;;;;;;;25.02;47.98;101193.59;4969768;28;20054;-79
2022/07/11 05:17:35;;;;;;;8.52;4.43;;;;;;;25.28;47.84;101245.09;4968192;28;20137;-77
2022/07/11 05:20:02;;;;;;;10.00;4.18;;;;;;;25.66;47.85;101282.28;4968609;28;20223;-79
2022/07/11 05:22:29;;;;;;;12.55;4.50;;;;;;;25.68;47.77;101282.88;4967929;28;20503;-79
2022/07/11 05:24:56;;;;;;;6.30;5.20;;;;;;;25.59;47.89;101265.16;4968139;28;20081;-79
2022/07/11 05:27:22;;;;;;;10.93;4.35;;;;;;;25.73;47.83;101285.78;4968430;28;20051;-79
2022/07/11 05:29:49;;;;;;;10.73;4.72;;;;;;;25.37;48.21;101205.72;4969254;28;20141;-79
2022/07/11 05:32:16;;;;;;;10.57;4.45;;;;;;;25.70;48.24;101248.13;4969351;28;20211;-79
2022/07/11 05:34:42;;;;;;;5.65;4.47;;;;;;;25.99;48.00;101301.06;4968149;28;20507;-79
2022/07/11 05:37:09;;;;;;;18.40;4.90;;;;;;;26.07;47.20;101297.25;4970243;28;20562;-78
2022/07/11 05:39:36;;;;;;;9.23;4.53;;;;;;;26.11;47.22;101303.91;4957077;28;20055;-79
2022/07/11 05:42:02;;;;;;;10.25;4.68;;;;;;;26.23;47.00;101299.41;4945797;29;20485;-80
2022/07/11 05:44:29;;;;;;;7.57;3.92;;;;;;;26.32;45.67;101282.81;4945686;29;20052;-79
2022/07/11 05:47:03;;;;;;;5.88;3.72;;;;;;;26.37;45.55;101291.13;4931077;29;20090;-79
2022/07/11 05:49:31;;;;;;;10.25;4.03;;;;;;;26.43;45.67;101301.09;4929833;29;20044;-78
2022/07/11 05:51:58;;;;;;;5.75;4.10;;;;;;;26.39;45.51;101299.91;4945666;29;20048;-80
2022/07/11 05:54:24;;;;;;;8.23;3.72;;;;;;;25.91;44.82;101205.34;4963141;28;20369;-81
2022/07/11 05:56:51;;;;;;;9.68;4.03;;;;;;;26.43;44.95;101280.16;4968338;28;20109;-80
2022/07/11 05:59:18;;;;;;;7.40;3.63;;;;;;;26.45;44.08;101255.44;4968309;28;20042;-79
2022/07/11 06:01:45;;;;;;;5.65;3.38;;;;;;;26.53;43.61;101274.25;4969400;28;20050;-78
2022/07/11 06:04:12;;;;;;;5.68;3.40;;;;;;;26.66;43.51;101288.75;4987951;28;20057;-79
2022/07/11 06:06:39;;;;;;;3.97;3.30;;;;;;;26.80;44.00;101299.28;4971519;28;20395;-79
2022/07/11 06:09:06;;;;;;;5.88;3.40;;;;;;;26.82;43.34;101309.94;4988513;28;20319;-80
2022/07/11 06:11:33;;;;;;;6.30;3.30;;;;;;;26.63;43.14;101279.97;4963230;28;20050;-81
2022/07/11 06:14:00;;;;;;;3.03;2.70;;;;;;;26.92;42.36;101303.94;4931025;29;20059;-80
2022/07/11 06:16:27;;;;;;;3.65;2.80;;;;;;;26.92;42.08;101296.63;4948369;28;20055;-79
2022/07/11 06:18:54;;;;;;;5.30;3.33;;;;;;;27.06;41.78;101309.03;4931224;29;20484;-79
2022/07/11 06:21:23;;;;;;;5.22;2.97;;;;;;;26.97;41.67;101288.59;4930621;29;20134;-80
2022/07/11 06:23:50;;;;;;;6.45;2.70;;;;;;;27.14;41.56;101317.91;4930950;29;20055;-79
2022/07/11 06:26:17;;;;;;;2.92;2.60;;;;;;;27.15;41.48;101322.31;4948604;29;20485;-78
2022/07/11 06:28:44;;;;;;;5.00;2.58;;;;;;;27.17;41.68;101322.94;4931337;29;20269;-78
2022/07/11 06:31:10;;;;;;;4.40;2.53;;;;;;;27.19;41.97;101312.69;4932118;29;20044;-80
2022/07/11 06:33:38;;;;;;;6.32;3.08;;;;;;;26.77;42.14;101253.41;4932250;29;20571;-78
2022/07/11 06:36:06;;;;;;;3.50;3.20;;;;;;;27.00;42.32;101306.38;4931258;29;20082;-80
2022/07/11 06:38:33;;;;;;;5.07;2.80;;;;;;;27.07;42.98;101310.69;4931860;29;20051;-80
2022/07/11 06:41:00;;;;;;;6.15;2.63;;;;;;;27.40;43.13;101325.78;4932191;29;20066;-80
2022/07/11 06:43:30;;;;;;;5.95;2.65;;;;;;;26.95;43.67;101279.81;4931827;29;20303;-79
2022/07/11 06:45:57;;;;;;;10.73;3.20;;;;;;;27.07;43.87;101296.22;4931859;29;20051;-79
2022/07/11 06:48:25;;;;;;;5.65;2.80;;;;;;;27.45;43.98;101342.31;4931866;29;20104;-80
2022/07/11 06:50:52;;;;;;;4.25;3.05;;;;;;;27.14;44.17;101296.97;4935118;29;20495;-80
2022/07/11 06:53:19;;;;;;;5.57;3.45;;;;;;;27.43;43.97;101336.25;4955531;28;20050;-81
2022/07/11 06:55:46;;;;;;;5.05;3.00;;;;;;;27.20;44.65;101295.25;4992340;28;20061;-79
2022/07/11 06:58:31;;;;;;;4.82;3.08;;;;;;;27.24;45.42;101310.09;4989997;28;20069;-81
2022/07/11 07:01:05;;;;;;;10.05;3.40;;;;;;;27.42;46.21;101336.47;4989069;28;20050;-81
2022/07/11 07:03:33;;;;;;;3.67;3.33;;;;;;;27.40;46.35;101320.31;4994623;28;20455;-81
2022/07/11 07:06:01;;;;;;;7.82;2.95;;;;;;;27.41;46.45;101341.09;4977471;28;20050;-82
2022/07/11 07:08:29;;;;;;;4.95;3.13;;;;;;;27.32;46.87;101337.00;4971639;28;20116;-81
2022/07/11 07:10:57;;;;;;;3.25;2.95;;;;;;;27.33;46.76;101354.19;4970359;28;20373;-80
2022/07/11 07:13:29;;;;;;;5.05;3.05;;;;;;;27.51;46.81;101340.53;4986900;28;20164;-80
2022/07/11 07:15:59;;;;;;;10.02;3.33;;;;;;;26.96;46.95;101242.50;4969760;28;20056;-80
2022/07/11 07:18:26;;;;;;;3.85;3.20;;;;;;;27.71;47.09;101334.78;4970013;28;20058;-80
2022/07/11 07:20:53;;;;;;;6.22;3.25;;;;;;;27.46;46.74;101277.69;4987066;28;20450;-79
2022/07/11 07:23:20;;;;;;;4.75;3.28;;;;;;;27.92;46.77;101352.56;4971782;28;20050;-80
2022/07/11 07:25:47;;;;;;;5.43;3.53;;;;;;;27.92;46.96;101347.94;4987460;28;20082;-79
2022/07/11 07:28:14;;;;;;;8.45;3.50;;;;;;;27.84;46.72;101301.91;4969998;28;20058;-79
2022/07/11 07:30:41;;;;;;;8.32;3.25;;;;;;;28.15;46.60;101323.63;4969852;28;20046;-80
2022/07/11 07:33:10;;;;;;;6.82;3.63;;;;;;;28.16;46.55;101336.22;4973579;28;20053;-80
2022/07/11 07:35:37;;;;;;;6.47;3.35;;;;;;;28.23;46.79;101351.44;4993759;28;20490;-79
2022/07/11 07:38:04;;;;;;;4.13;3.42;;;;;;;28.21;46.48;101326.25;4994214;28;20050;-80
2022/07/11 07:40:30;;;;;;;6.80;2.95;;;;;;;28.41;46.23;101345.03;4957461;28;20051;-80
2022/07/11 07:42:57;;;;;;;3.65;3.10;;;;;;;27.86;46.35;101238.91;4937681;29;20063;-78
2022/07/11 07:45:24;;;;;;;6.28;3.10;;;;;;;28.13;46.13;101299.31;4955032;28;20043;-80
2022/07/11 07:47:51;;;;;;;4.43;2.88;;;;;;;28.41;45.62;101330.53;4953660;28;20110;-80
2022/07/11 07:50:17;;;;;;;5.53;3.13;;;;;;;28.43;45.35;101337.44;4953298;29;20047;-81
2022/07/11 07:52:44;;;;;;;4.45;3.67;;;;;;;28.14;45.05;101284.59;4943235;28;20120;-80
2022/07/11 07:55:12;;;;;;;4.53;3.30;;;;;;;28.36;45.66;101333.97;4993199;28;20141;-80
2022/07/11 07:57:38;;;;;;;8.55;3.80;;;;;;;28.29;46.11;101320.44;4975991;28;20082;-80
2022/07/11 08:02:51;;;;;;;8.85;2.92;;;;;;;28.50;45.27;101326.44;4993799;28;20136;-79
2022/07/11 08:05:19;;;;;;;6.25;2.90;;;;;;;28.64;45.12;101337.91;4976355;28;20285;-80
2022/07/11 08:07:45;;;;;;;5.30;3.17;;;;;;;28.58;44.35;101326.06;4976340;28;20105;-80
2022/07/11 08:10:14;;;;;;;10.27;3.40;;;;;;;28.66;45.05;101342.06;4975935;28;20049;-80
2022/07/11 08:12:41;;;;;;;7.43;2.90;;;;;;;28.61;44.87;101333.75;4975801;28;20053;-79
2022/07/11 08:15:09;;;;;;;6.82;2.88;;;;;;;28.71;43.58;101328.50;4974864;28;20452;-79
2022/07/11 08:17:36;;;;;;;4.60;2.72;;;;;;;28.93;42.11;101336.09;4975914;28;20050;-79
2022/07/11 08:20:03;;;;;;;4.78;3.03;;;;;;;29.02;42.16;101329.19;4993648;28;20560;-79
2022/07/11 08:22:29;;;;;;;4.63;3.08;;;;;;;28.90;42.70;101304.59;4975548;28;20547;-79
2022/07/11 08:24:56;;;;;;;5.38;3.42;;;;;;;28.90;42.68;101282.75;4975921;28;20042;-79
2022/07/11 08:27:22;;;;;;;3.45;2.78;;;;;;;29.42;42.25;101333.84;4975456;28;20135;-74
2022/07/11 08:30:08;;;;;;;5.03;3.22;;;;;;;28.98;43.06;101274.19;4992994;28;20105;-78
2022/07/11 08:32:40;;;;;;;3.75;3.45;;;;;;;29.45;43.01;101332.53;4976110;28;20058;-79
2022/07/11 08:35:08;;;;;;;6.13;3.38;;;;;;;29.10;43.52;101312.41;4960701;28;20567;-79
2022/07/11 08:37:36;;;;;;;8.88;3.95;;;;;;;28.87;44.10;101280.50;4975966;28;20046;-79
2022/07/11 08:40:03;;;;;;;8.80;3.88;;;;;;;29.25;43.93;101322.84;4960529;28;20600;-79
2022/07/11 08:42:30;;;;;;;5.45;3.72;;;;;;;29.18;43.22;101308.50;4954561;29;20055;-79
2022/07/11 08:44:58;;;;;;;8.40;4.47;;;;;;;29.52;43.17;101325.00;4951742;28;20047;-79
2022/07/11 08:47:25;;;;;;;10.63;3.95;;;;;;;29.49;43.54;101317.25;4934015;29;20366;-80
2022/07/11 08:49:52;;;;;;;7.20;3.80;;;;;;;29.45;43.95;101297.78;4950328;29;20055;-79
2022/07/11 08:52:20;;;;;;;6.68;3.60;;;;;;;29.69;43.60;101322.31;4934140;29;20063;-80
2022/07/11 08:54:46;;;;;;;7.05;3.50;;;;;;;29.45;43.13;101267.69;4972385;28;20129;-80
2022/07/11 08:57:15;;;;;;;5.15;3.72;;;;;;;29.27;43.10;101237.81;4990277;28;20149;-79
2022/07/11 08:59:43;;;;;;;4.88;3.38;;;;;;;29.59;43.14;101274.53;4956758;28;20168;-80
2022/07/11 09:02:13;;;;;;;4.30;3.58;;;;;;;29.85;43.09;101310.53;4952865;28;20051;-78
2022/07/11 09:04:40;;;;;;;5.63;3.83;;;;;;;29.90;42.43;101296.94;4937129;29;20047;-80
2022/07/11 09:07:07;;;;;;;5.53;3.40;;;;;;;30.01;42.55;101309.72;4955271;29;20527;-78
2022/07/11 09:09:34;;;;;;;5.78;3.80;;;;;;;30.17;42.38;101318.16;4938316;29;20172;-80
2022/07/11 09:12:00;;;;;;;4.57;3.42;;;;;;;30.12;40.79;101301.66;4935217;29;20055;-79
2022/07/11 09:14:29;;;;;;;6.97;3.63;;;;;;;30.14;39.74;101291.31;4934035;29;20113;-81
2022/07/11 09:17:01;;;;;;;7.70;3.42;;;;;;;30.24;40.29;101292.31;4933895;29;20376;-80
2022/07/11 09:19:30;;;;;;;3.10;2.80;;;;;;;30.31;38.82;101291.31;4950113;29;20490;-79
2022/07/11 09:27:47;;;;;;;10.85;2.92;;;;;;;30.71;37.69;101266.41;4951135;29;20530;-80
2022/07/11 09:30:20;;;;;;;22.70;5.10;;;;;;;30.35;36.84;101200.19;4949781;29;20054;-78
2022/07/11 09:32:57;;;;;;;12.23;3.15;;;;;;;30.85;37.00;101286.88;4933740;29;20055;-79
2022/07/11 09:35:28;;;;;;;3.25;2.75;;;;;;;30.62;37.71;101259.69;4950573;29;20509;-79
2022/07/11 09:37:54;;;;;;;4.47;2.72;;;;;;;30.71;37.36;101236.25;4949640;29;20452;-79
2022/07/11 09:40:22;;;;;;;7.82;2.95;;;;;;;30.98;37.91;101277.44;4952748;28;20059;-79
2022/07/11 09:42:54;;;;;;;15.48;3.80;;;;;;;31.13;36.67;101260.31;4969381;28;20051;-80
2022/07/11 09:45:24;;;;;;;4.57;2.85;;;;;;;30.86;36.73;101227.41;4952433;28;20478;-79
2022/07/11 09:47:52;;;;;;;7.30;3.05;;;;;;;30.87;35.81;101201.63;4969570;28;20423;-79
2022/07/11 09:50:26;;;;;;;11.20;2.90;;;;;;;31.41;36.23;101283.09;4952859;28;20083;-78
2022/07/11 09:53:03;;;;;;;7.10;3.33;;;;;;;31.42;35.74;101266.41;4956728;28;20056;-79
2022/07/11 09:55:31;;;;;;;7.45;2.92;;;;;;;31.54;36.20;101288.19;4971574;28;20074;-79
2022/07/11 09:58:18;;;;;;;5.30;2.25;;;;;;;31.33;34.99;101225.97;4974320;28;20054;-79
2022/07/11 10:00:45;;;;;;;3.13;2.38;;;;;;;31.50;34.55;101238.47;4988379;28;20758;-80
2022/07/11 10:03:12;;;;;;;3.90;2.33;;;;;;;31.50;34.72;101229.44;4969026;28;20104;-80
2022/07/11 10:06:00;;;;;;;4.38;2.70;;;;;;;31.87;33.58;101280.78;4972347;28;20149;-81
2022/07/11 10:08:27;;;;;;;3.83;2.20;;;;;;;31.85;33.98;101285.72;4972651;28;20077;-80
2022/07/11 10:10:53;;;;;;;3.78;2.67;;;;;;;31.77;33.49;101256.81;4971524;28;20042;-81
2022/07/11 10:13:20;;;;;;;7.07;2.72;;;;;;;31.72;33.77;101257.59;4971723;28;20168;-80
2022/07/11 10:15:47;;;;;;;9.10;2.22;;;;;;;31.90;33.24;101277.53;4970616;28;20565;-80
2022/07/11 10:18:44;;;;;;;2.70;2.10;;;;;;;32.01;33.76;101292.19;4972567;28;20506;-79
2022/07/11 10:21:17;;;;;;;;;;;;;;;32.13;33.67;101288.13;4971307;28;20137;-79
2022/07/11 10:23:57;;;;;;;7.65;2.22;;;;;;;32.24;33.02;101277.25;4988045;28;20335;-80
2022/07/11 10:26:32;;;;;;;3.53;2.58;;;;;;;32.58;32.94;101296.97;4987657;28;20151;-79
2022/07/11 10:29:07;;;;;;;3.80;2.50;;;;;;;32.66;32.00;101270.88;4970571;28;20050;-80
2022/07/11 10:31:34;;;;;;;3.50;2.58;;;;;;;32.54;32.55;101263.69;4987919;28;20513;-80
2022/07/11 10:34:27;;;;;;;4.97;2.60;;;;;;;33.02;31.63;101304.84;4973475;28;20081;-80
2022/07/11 10:37:00;;;;;;;2.50;2.20;;;;;;;32.42;31.89;101221.00;4970218;28;20050;-80
2022/07/11 10:39:27;;;;;;;5.20;2.72;;;;;;;32.92;31.85;101294.63;4959951;28;20114;-81
2022/07/11 10:41:55;;;;;;;3.67;2.60;;;;;;;33.11;32.25;101284.00;4948073;29;20063;-79
2022/07/11 10:44:22;;;;;;;2.47;2.28;;;;;;;33.11;30.59;101297.75;4931720;29;20587;-81
2022/07/11 10:46:49;;;;;;;4.78;2.40;;;;;;;33.34;30.81;101293.69;4947440;29;20055;-81
2022/07/11 10:49:18;;;;;;;4.25;2.90;;;;;;;33.49;31.16;101283.78;4931447;29;20043;-81
2022/07/11 10:52:08;;;;;;;4.93;2.45;;;;;;;33.52;31.65;101277.72;4931624;29;20051;-80
2022/07/11 10:55:03;;;;;;;7.80;2.67;;;;;;;33.70;31.16;101274.47;4970860;28;20082;-80
2022/07/11 10:57:45;;;;;;;4.60;2.47;;;;;;;33.88;30.97;101286.84;4958895;28;21034;-80
2022/07/11 11:00:15;;;;;;;5.03;2.20;;;;;;;33.68;30.40;101243.63;4949329;29;20051;-79
2022/07/11 11:03:08;;;;;;;4.93;2.53;;;;;;;34.11;30.64;101285.50;4948993;29;20048;-81
2022/07/11 11:05:54;;;;;;;3.38;2.97;;;;;;;34.29;30.30;101252.94;4933816;29;20054;-81
2022/07/11 11:11:04;;;;;;;3.03;2.72;;;;;;;34.80;29.68;101278.41;4954436;29;20047;-81
2022/07/11 11:13:31;;;;;;;;;;;;;;;34.70;29.95;101278.44;4939215;29;20543;-80
2022/07/11 11:15:59;;;;;;;8.20;2.40;;;;;;;34.22;30.46;101198.94;4950222;28;19922;-78
2022/07/11 11:18:33;;;;;;;2.95;2.75;;;;;;;34.53;29.79;101242.09;4933979;29;20053;-79
2022/07/11 11:21:01;;;;;;;3.58;2.58;;;;;;;34.43;29.61;101199.69;4933510;29;20058;-80
2022/07/11 11:23:31;;;;;;;7.25;2.72;;;;;;;34.91;30.09;101270.91;4933193;29;20047;-80
2022/07/11 11:26:12;;;;;;;5.63;2.63;;;;;;;35.04;29.18;101269.47;4955686;29;20349;-82
2022/07/11 11:28:54;;;;;;;;;;;;;;;35.19;29.24;101268.56;4939360;29;20064;-81
2022/07/11 11:31:22;;;;;;;8.98;2.47;;;;;;;34.94;29.03;101209.66;4968251;29;19982;-82
2022/07/11 11:33:50;;;;;;;7.22;2.60;;;;;;;35.53;28.95;101263.88;4962706;29;20503;-80
2022/07/11 11:36:19;;;;;;;3.58;3.25;;;;;;;35.21;28.73;101197.38;4935061;29;20110;-81
2022/07/11 11:38:48;;;;;;;4.85;2.50;;;;;;;35.58;29.03;101245.63;4934920;28;20487;-80
2022/07/11 11:41:30;;;;;;;2.63;2.22;;;;;;;35.14;29.53;101161.00;4953497;28;20057;-81